createdAt,value
2018-12-18T00:01:48.234Z,96.30
2018-12-18T00:04:21.534Z,96.30
2018-12-18T00:06:50.168Z,96.40
2018-12-18T00:09:18.983Z,96.40
2018-12-18T00:11:47.806Z,96.50
2018-12-18T00:14:17.823Z,96.50
2018-12-18T00:16:47.091Z,96.50
2018-12-18T00:19:17.113Z,96.40
2018-12-18T00:21:45.611Z,96.60
2018-12-18T00:24:14.173Z,96.60
2018-12-18T00:26:43.522Z,96.60
2018-12-18T00:29:12.055Z,96.60
2018-12-18T00:31:40.652Z,96.40
2018-12-18T00:34:09.291Z,96.20
2018-12-18T00:36:38.444Z,96.30
2018-12-18T00:39:12.144Z,96.30
2018-12-18T00:41:40.775Z,96.30
2018-12-18T00:44:10.485Z,96.40
2018-12-18T00:46:39.143Z,96.40
2018-12-18T00:49:10.075Z,96.30
2018-12-18T00:51:38.604Z,96.30
2018-12-18T00:54:07.195Z,96.20
2018-12-18T00:56:35.734Z,96.30
2018-12-18T00:59:05.410Z,96.40
2018-12-18T01:01:34.256Z,96.10
2018-12-18T01:04:03.575Z,96.20
2018-12-18T01:06:33.332Z,96.40
2018-12-18T01:09:01.918Z,96.40
2018-12-18T01:11:31.547Z,96.50
2018-12-18T01:14:00.065Z,96.30
2018-12-18T01:16:28.595Z,96.10
2018-12-18T01:18:57.212Z,96.20
2018-12-18T01:21:25.787Z,96.30
2018-12-18T01:23:55.052Z,96.10
2018-12-18T01:26:23.992Z,96.20
2018-12-18T01:28:56.437Z,96.40
2018-12-18T01:31:25.254Z,96.50
2018-12-18T01:33:59.289Z,96.60
2018-12-18T01:36:24.419Z,96.70
2018-12-18T01:38:53.209Z,96.80
2018-12-18T01:41:21.726Z,96.80
2018-12-18T01:43:50.345Z,96.80
2018-12-18T01:46:18.863Z,96.80
2018-12-18T01:48:48.298Z,96.80
2018-12-18T01:51:16.823Z,96.80
2018-12-18T01:53:45.331Z,96.80
2018-12-18T01:56:13.839Z,96.70
2018-12-18T01:58:42.377Z,96.60
2018-12-18T02:01:10.916Z,96.70
2018-12-18T02:03:39.803Z,96.70
2018-12-18T02:06:08.454Z,96.80
2018-12-18T02:08:36.934Z,96.80
2018-12-18T02:11:05.452Z,97.10
2018-12-18T02:13:34.031Z,96.60
2018-12-18T02:16:02.693Z,96.70
2018-12-18T02:18:31.503Z,96.70
2018-12-18T02:21:00.053Z,96.70
2018-12-18T02:23:28.561Z,96.70
2018-12-18T02:25:57.103Z,96.70
2018-12-18T02:28:25.645Z,96.60
2018-12-18T02:30:54.138Z,96.60
2018-12-18T02:33:22.662Z,96.60
2018-12-18T02:35:51.186Z,96.60
2018-12-18T02:38:19.734Z,96.70
2018-12-18T02:40:48.231Z,96.70
2018-12-18T02:43:17.189Z,96.60
2018-12-18T02:45:45.756Z,96.70
2018-12-18T02:48:14.258Z,96.80
2018-12-18T02:50:42.814Z,96.90
2018-12-18T02:53:11.312Z,97.00
2018-12-18T02:55:39.818Z,97.20
2018-12-18T02:58:08.352Z,97.20
2018-12-18T03:00:36.853Z,97.20
2018-12-18T03:03:05.339Z,97.20
2018-12-18T03:05:37.234Z,97.30
2018-12-18T03:08:05.733Z,97.40
2018-12-18T03:10:34.295Z,97.40
2018-12-18T03:13:02.808Z,97.40
2018-12-18T03:15:31.294Z,97.30
2018-12-18T03:17:59.885Z,97.40
2018-12-18T03:20:28.374Z,97.40
2018-12-18T03:22:56.889Z,97.40
2018-12-18T03:25:25.387Z,97.80
2018-12-18T03:27:53.925Z,97.50
2018-12-18T03:30:22.431Z,97.50
2018-12-18T03:32:53.602Z,97.60
2018-12-18T03:35:22.070Z,97.70
2018-12-18T03:37:50.523Z,97.60
2018-12-18T03:40:19.150Z,97.60
2018-12-18T03:42:47.915Z,97.50
2018-12-18T03:45:16.392Z,97.30
2018-12-18T03:47:44.894Z,97.20
2018-12-18T03:50:13.417Z,97.20
2018-12-18T03:52:41.919Z,97.10
2018-12-18T03:55:10.624Z,97.10
2018-12-18T03:57:39.097Z,97.10
2018-12-18T04:00:09.556Z,97.10
2018-12-18T04:02:38.224Z,97.10
2018-12-18T04:05:07.035Z,97.20
2018-12-18T04:07:36.744Z,97.10
2018-12-18T04:10:06.073Z,97.10
2018-12-18T04:12:34.513Z,97.20
2018-12-18T04:15:03.124Z,97.20
2018-12-18T04:17:31.732Z,97.20
2018-12-18T04:20:00.200Z,97.20
2018-12-18T04:22:28.714Z,97.10
2018-12-18T04:24:57.332Z,97.10
2018-12-18T04:27:25.812Z,97.20
2018-12-18T04:29:54.309Z,97.10
2018-12-18T04:32:22.811Z,97.50
2018-12-18T04:34:51.335Z,97.20
2018-12-18T04:37:19.807Z,97.10
2018-12-18T04:39:48.338Z,97.20
2018-12-18T04:42:16.821Z,97.30
2018-12-18T04:44:45.318Z,97.40
2018-12-18T04:47:13.875Z,97.30
2018-12-18T04:49:42.350Z,97.30
2018-12-18T04:52:10.819Z,97.30
2018-12-18T04:54:45.849Z,97.60
2018-12-18T04:57:14.331Z,97.40
2018-12-18T04:59:42.860Z,97.20
2018-12-18T05:02:11.341Z,97.50
2018-12-18T05:04:39.855Z,97.20
2018-12-18T05:07:08.370Z,97.20
2018-12-18T05:09:36.872Z,97.30
2018-12-18T05:12:05.382Z,97.20
2018-12-18T05:14:40.840Z,97.20
2018-12-18T05:17:09.363Z,97.10
2018-12-18T05:19:37.858Z,97.00
2018-12-18T05:22:06.437Z,97.00
2018-12-18T05:24:34.915Z,96.90
2018-12-18T05:27:03.473Z,96.90
2018-12-18T05:29:32.723Z,96.90
2018-12-18T05:32:01.255Z,96.90
2018-12-18T05:34:30.425Z,96.70
2018-12-18T05:36:59.031Z,96.80
2018-12-18T05:39:27.753Z,96.70
2018-12-18T05:41:56.447Z,96.60
2018-12-18T05:44:25.232Z,96.70
2018-12-18T05:46:53.799Z,96.60
2018-12-18T05:49:22.340Z,96.60
2018-12-18T05:51:51.216Z,96.70
2018-12-18T05:54:19.814Z,96.50
2018-12-18T05:56:48.318Z,96.60
2018-12-18T05:59:16.910Z,96.60
2018-12-18T06:01:45.426Z,96.70
2018-12-18T06:04:13.959Z,96.70
2018-12-18T06:06:42.782Z,96.70
2018-12-18T06:09:11.323Z,96.50
2018-12-18T06:11:39.875Z,96.70
2018-12-18T06:14:08.481Z,96.70
2018-12-18T06:16:37.013Z,96.50
2018-12-18T06:19:05.485Z,96.50
2018-12-18T06:21:33.980Z,96.60
2018-12-18T06:24:02.753Z,96.50
2018-12-18T06:26:31.377Z,96.60
2018-12-18T06:28:59.918Z,96.60
2018-12-18T06:31:28.493Z,96.50
2018-12-18T06:33:56.993Z,96.30
2018-12-18T06:36:25.498Z,96.30
2018-12-18T06:38:53.985Z,96.20
2018-12-18T06:41:22.466Z,96.30
2018-12-18T06:43:51.124Z,96.20
2018-12-18T06:46:19.862Z,96.20
2018-12-18T06:48:48.391Z,96.20
2018-12-18T06:51:17.291Z,96.40
2018-12-18T06:53:47.820Z,96.50
2018-12-18T06:56:16.403Z,96.30
2018-12-18T06:58:45.816Z,96.40
2018-12-18T07:01:14.625Z,96.40
2018-12-18T07:03:43.165Z,96.40
2018-12-18T07:06:11.698Z,96.30
2018-12-18T07:08:40.268Z,96.40
2018-12-18T07:11:08.852Z,96.30
2018-12-18T07:13:37.357Z,96.50
2018-12-18T07:16:05.887Z,96.40
2018-12-18T07:18:34.405Z,96.20
2018-12-18T07:21:03.984Z,96.20
2018-12-18T07:23:32.489Z,96.10
2018-12-18T07:26:01.758Z,96.20
2018-12-18T07:28:31.095Z,96.20
2018-12-18T07:30:59.617Z,96.30
2018-12-18T07:33:28.135Z,96.40
2018-12-18T07:35:56.730Z,96.30
2018-12-18T07:38:25.349Z,96.00
2018-12-18T07:40:53.967Z,96.20
2018-12-18T07:43:23.191Z,96.30
2018-12-18T07:45:51.743Z,96.20
2018-12-18T07:48:20.533Z,96.10
2018-12-18T07:50:50.969Z,96.20
2018-12-18T07:53:19.549Z,96.10
2018-12-18T07:55:48.507Z,95.90
2018-12-18T07:58:17.002Z,95.90
2018-12-18T08:00:45.523Z,95.90
2018-12-18T08:03:14.142Z,96.00
2018-12-18T08:05:42.670Z,96.00
2018-12-18T08:08:11.209Z,96.20
2018-12-18T08:10:40.329Z,96.10
2018-12-18T08:13:09.174Z,96.10
2018-12-18T08:15:39.010Z,96.00
2018-12-18T08:18:07.581Z,95.80
2018-12-18T08:20:36.656Z,95.80
2018-12-18T08:23:05.566Z,95.80
2018-12-18T08:25:34.137Z,95.90
2018-12-18T08:28:04.489Z,95.70
2018-12-18T08:30:34.246Z,95.60
2018-12-18T08:33:02.836Z,95.40
2018-12-18T08:35:36.426Z,95.10
2018-12-18T08:38:02.666Z,95.10
2018-12-18T08:40:31.478Z,95.00
2018-12-18T08:42:59.961Z,94.80
2018-12-18T08:45:29.264Z,95.00
2018-12-18T08:47:59.639Z,94.70
2018-12-18T08:50:29.122Z,94.80
2018-12-18T08:52:58.919Z,94.50
2018-12-18T08:55:27.781Z,94.50
2018-12-18T08:57:58.732Z,94.50
2018-12-18T09:00:27.639Z,94.20
2018-12-18T09:02:57.078Z,94.00
2018-12-18T09:05:25.903Z,94.00
2018-12-18T09:07:54.439Z,94.20
2018-12-18T09:10:24.662Z,94.40
2018-12-18T09:12:53.548Z,94.20
2018-12-18T09:15:28.391Z,94.00
2018-12-18T09:17:57.811Z,94.10
2018-12-18T09:20:27.047Z,94.60
2018-12-18T09:22:55.597Z,94.40
2018-12-18T09:25:24.251Z,94.20
2018-12-18T09:27:54.101Z,94.20
2018-12-18T09:30:23.466Z,94.50
2018-12-18T09:32:53.459Z,94.10
2018-12-18T09:35:22.548Z,94.10
2018-12-18T09:37:55.805Z,94.00
2018-12-18T09:40:26.515Z,94.00
2018-12-18T09:43:01.548Z,94.00
2018-12-18T09:45:31.150Z,93.50
2018-12-18T09:47:59.703Z,93.50
2018-12-18T09:50:29.984Z,93.50
2018-12-18T09:53:00.396Z,93.40
2018-12-18T09:55:29.654Z,93.10
2018-12-18T09:57:59.401Z,92.90
2018-12-18T10:00:28.428Z,92.80
2018-12-18T10:02:57.940Z,92.80
2018-12-18T10:05:26.999Z,92.70
2018-12-18T10:07:56.332Z,92.90
2018-12-18T10:10:25.465Z,92.80
2018-12-18T10:12:55.926Z,92.40
2018-12-18T10:15:26.234Z,92.20
2018-12-18T10:17:55.069Z,92.40
2018-12-18T10:20:23.928Z,92.40
2018-12-18T10:22:52.445Z,92.40
2018-12-18T10:25:21.691Z,92.60
2018-12-18T10:27:50.246Z,92.50
2018-12-18T10:30:20.279Z,92.50
2018-12-18T10:32:49.626Z,92.50
2018-12-18T10:35:20.144Z,92.90
2018-12-18T10:37:49.024Z,92.60
2018-12-18T10:40:17.818Z,92.00
2018-12-18T10:42:47.036Z,92.40
2018-12-18T10:45:19.250Z,92.20
2018-12-18T10:47:47.785Z,92.30
2018-12-18T10:50:19.923Z,92.10
2018-12-18T10:52:48.730Z,92.00
2018-12-18T10:55:17.567Z,91.80
2018-12-18T10:57:46.097Z,91.70
2018-12-18T11:00:20.816Z,91.50
2018-12-18T11:02:50.386Z,91.30
2018-12-18T11:05:19.630Z,91.20
2018-12-18T11:07:48.538Z,90.90
2018-12-18T11:10:18.363Z,90.80
2018-12-18T11:12:52.139Z,90.70
2018-12-18T11:15:21.099Z,90.60
2018-12-18T11:17:51.216Z,90.30
2018-12-18T11:20:20.640Z,90.50
2018-12-18T11:22:53.571Z,90.50
2018-12-18T11:25:23.136Z,90.50
2018-12-18T11:27:51.652Z,90.50
2018-12-18T11:30:21.625Z,90.40
2018-12-18T11:32:52.299Z,90.50
2018-12-18T11:35:21.978Z,90.30
2018-12-18T11:37:52.265Z,90.30
2018-12-18T11:40:23.488Z,90.40
2018-12-18T11:42:52.851Z,90.50
2018-12-18T11:45:21.777Z,90.40
2018-12-18T11:47:52.034Z,90.30
2018-12-18T11:50:20.959Z,90.50
2018-12-18T11:52:51.795Z,90.60
2018-12-18T11:55:22.622Z,90.30
2018-12-18T11:57:52.326Z,90.10
2018-12-18T12:00:22.209Z,90.30
2018-12-18T12:02:54.890Z,90.30
2018-12-18T12:05:25.000Z,90.50
2018-12-18T12:07:58.601Z,90.40
2018-12-18T12:10:27.779Z,90.50
2018-12-18T12:12:57.205Z,90.50
2018-12-18T12:15:26.782Z,90.60
2018-12-18T12:17:57.147Z,90.10
2018-12-18T12:20:27.260Z,89.50
2018-12-18T12:22:56.393Z,89.30
2018-12-18T12:25:27.068Z,88.80
2018-12-18T12:28:01.473Z,89.00
2018-12-18T12:30:30.315Z,88.80
2018-12-18T12:33:00.204Z,89.50
2018-12-18T12:35:30.669Z,89.60
2018-12-18T12:38:00.051Z,89.10
2018-12-18T12:40:29.837Z,88.80
2018-12-18T12:43:00.166Z,89.10
2018-12-18T12:45:30.082Z,89.60
2018-12-18T12:48:02.935Z,89.20
2018-12-18T12:50:32.265Z,89.50
2018-12-18T12:53:01.161Z,89.20
2018-12-18T12:55:30.639Z,89.60
2018-12-18T12:58:00.539Z,89.80
2018-12-18T13:00:29.783Z,89.60
2018-12-18T13:03:00.461Z,90.00
2018-12-18T13:05:29.798Z,90.00
2018-12-18T13:07:58.789Z,90.10
2018-12-18T13:10:28.148Z,90.20
2018-12-18T13:12:57.378Z,90.50
2018-12-18T13:15:29.256Z,90.70
2018-12-18T13:17:58.320Z,90.60
2018-12-18T13:20:29.151Z,90.50
2018-12-18T13:22:59.982Z,90.50
2018-12-18T13:25:30.741Z,90.60
2018-12-18T13:28:00.482Z,90.70
2018-12-18T13:30:33.327Z,90.80
2018-12-18T13:33:02.782Z,90.80
2018-12-18T13:35:32.295Z,90.90
2018-12-18T13:38:02.175Z,90.80
2018-12-18T13:40:32.487Z,90.90
2018-12-18T13:43:01.563Z,91.10
2018-12-18T13:45:31.228Z,91.10
2018-12-18T13:48:00.217Z,91.20
2018-12-18T13:50:30.942Z,91.10
2018-12-18T13:53:00.613Z,91.10
2018-12-18T13:55:36.677Z,91.00
2018-12-18T13:58:04.517Z,91.10
2018-12-18T14:00:34.377Z,91.00
2018-12-18T14:03:03.940Z,91.00
2018-12-18T14:05:33.090Z,91.00
2018-12-18T14:08:05.256Z,91.00
2018-12-18T14:10:34.455Z,91.00
2018-12-18T14:13:04.891Z,91.20
2018-12-18T14:15:34.471Z,91.40
2018-12-18T14:18:05.076Z,91.60
2018-12-18T14:23:03.981Z,91.70
2018-12-18T14:25:32.558Z,92.20
2018-12-18T14:28:03.122Z,92.30
2018-12-18T14:30:36.555Z,92.40
2018-12-18T14:33:06.741Z,92.40
2018-12-18T14:35:38.911Z,92.70
2018-12-18T14:38:08.306Z,92.90
2018-12-18T14:40:40.077Z,93.00
2018-12-18T14:43:09.422Z,93.20
2018-12-18T14:45:38.123Z,93.50
2018-12-18T14:48:10.211Z,93.50
2018-12-18T14:50:40.033Z,93.50
2018-12-18T14:53:09.024Z,93.80
2018-12-18T14:55:39.287Z,93.90
2018-12-18T14:58:09.435Z,94.10
2018-12-18T15:00:41.484Z,94.10
2018-12-18T15:03:11.984Z,94.20
2018-12-18T15:05:42.152Z,94.10
2018-12-18T15:08:12.855Z,94.00
2018-12-18T15:10:44.331Z,93.90
2018-12-18T15:13:23.454Z,93.80
2018-12-18T15:15:53.644Z,93.70
2018-12-18T15:18:23.881Z,93.90
2018-12-18T15:20:53.258Z,93.70
2018-12-18T15:23:24.067Z,93.90
2018-12-18T15:25:56.229Z,94.20
2018-12-18T15:28:25.625Z,94.40
2018-12-18T15:30:56.644Z,94.60
2018-12-18T15:36:03.081Z,94.80
2018-12-18T15:38:32.970Z,95.20
2018-12-18T15:41:02.244Z,95.00
2018-12-18T15:43:36.426Z,95.00
2018-12-18T15:46:05.857Z,95.10
2018-12-18T15:48:35.335Z,95.20
2018-12-18T15:51:08.298Z,95.20
2018-12-18T15:53:39.322Z,95.10
2018-12-18T15:56:10.102Z,94.80
2018-12-18T15:58:45.132Z,94.70
2018-12-18T16:01:15.085Z,94.20
2018-12-18T16:03:52.001Z,94.10
2018-12-18T16:06:20.862Z,93.50
2018-12-18T16:08:50.654Z,93.20
2018-12-18T16:11:21.833Z,93.00
2018-12-18T16:13:51.190Z,92.90
2018-12-18T16:16:22.027Z,92.90
2018-12-18T16:18:51.293Z,93.00
2018-12-18T16:21:23.256Z,93.10
2018-12-18T16:23:59.515Z,93.40
2018-12-18T16:26:28.158Z,93.90
2018-12-18T16:28:57.668Z,94.10
2018-12-18T16:31:29.777Z,94.30
2018-12-18T16:33:58.518Z,94.50
2018-12-18T16:36:32.696Z,94.70
2018-12-18T16:39:02.044Z,94.70
2018-12-18T16:41:32.064Z,94.40
2018-12-18T16:44:01.646Z,94.50
2018-12-18T16:46:32.795Z,94.70
2018-12-18T16:49:01.843Z,94.60
2018-12-18T16:51:32.271Z,94.50
2018-12-18T16:54:01.464Z,94.70
2018-12-18T16:59:08.073Z,95.20
2018-12-18T17:01:37.769Z,95.40
2018-12-18T17:04:11.272Z,95.60
2018-12-18T17:06:40.531Z,95.80
2018-12-18T17:09:10.610Z,95.70
2018-12-18T17:11:46.270Z,95.80
2018-12-18T17:14:16.329Z,95.80
2018-12-18T17:16:45.572Z,95.70
2018-12-18T17:19:15.839Z,95.70
2018-12-18T17:21:45.730Z,95.70
2018-12-18T17:24:19.099Z,95.70
2018-12-18T17:26:50.232Z,95.70
2018-12-18T17:29:22.271Z,95.80
2018-12-18T17:31:57.646Z,95.80
2018-12-18T17:34:28.610Z,95.90
2018-12-18T17:36:58.716Z,95.70
2018-12-18T17:39:28.597Z,95.40
2018-12-18T17:41:59.729Z,95.40
2018-12-18T17:44:33.356Z,95.40
2018-12-18T17:47:02.658Z,95.40
2018-12-18T17:49:34.835Z,95.00
2018-12-18T17:52:17.358Z,95.10
2018-12-18T17:54:48.736Z,94.80
2018-12-18T17:57:18.440Z,95.00
2018-12-18T17:59:50.755Z,94.80
2018-12-18T18:02:21.569Z,94.40
2018-12-18T18:04:53.154Z,94.10
2018-12-18T18:07:23.973Z,94.00
2018-12-18T18:09:54.676Z,93.90
2018-12-18T18:12:29.888Z,93.90
2018-12-18T18:14:56.728Z,93.80
2018-12-18T18:17:26.806Z,93.70
2018-12-18T18:19:55.793Z,93.70
2018-12-18T18:22:26.088Z,93.90
2018-12-18T18:24:56.434Z,93.80
2018-12-18T18:27:32.898Z,93.80
2018-12-18T18:30:04.027Z,93.80
2018-12-18T18:32:34.922Z,93.90
2018-12-18T18:35:06.108Z,93.90
2018-12-18T18:37:39.878Z,93.90
2018-12-18T18:40:14.681Z,94.00
2018-12-18T18:42:47.176Z,94.00
2018-12-18T18:45:21.092Z,94.10
2018-12-18T18:47:51.510Z,94.20
2018-12-18T18:50:26.706Z,94.30
2018-12-18T18:52:56.723Z,94.30
2018-12-18T18:55:28.016Z,94.50
2018-12-18T18:57:57.833Z,94.70
2018-12-18T19:00:27.846Z,95.00
2018-12-18T19:03:00.574Z,95.00
2018-12-18T19:05:36.320Z,95.00
2018-12-18T19:08:09.668Z,94.90
2018-12-18T19:10:40.329Z,94.80
2018-12-18T19:13:15.978Z,94.80
2018-12-18T19:15:54.561Z,95.10
2018-12-18T19:18:25.357Z,95.30
2018-12-18T19:20:56.473Z,95.60
2018-12-18T19:23:25.908Z,95.70
2018-12-18T19:25:56.755Z,95.70
2018-12-18T19:28:31.116Z,95.70
2018-12-18T19:31:00.710Z,95.80
2018-12-18T19:33:36.693Z,95.80
2018-12-18T19:36:02.989Z,95.90
2018-12-18T19:38:34.430Z,95.50
2018-12-18T19:41:05.354Z,95.40
2018-12-18T19:43:35.628Z,95.40
2018-12-18T19:46:06.233Z,95.50
2018-12-18T19:48:36.884Z,95.30
2018-12-18T19:51:09.198Z,95.30
2018-12-18T19:53:39.653Z,95.20
2018-12-18T19:56:10.807Z,95.30
2018-12-18T19:58:42.996Z,95.40
2018-12-18T20:01:14.135Z,95.40
2018-12-18T20:03:45.385Z,95.50
2018-12-18T20:06:15.084Z,95.60
2018-12-18T20:08:45.602Z,95.70
2018-12-18T20:11:16.115Z,95.60
2018-12-18T20:13:48.425Z,95.70
2018-12-18T20:16:17.036Z,95.70
2018-12-18T20:18:47.049Z,95.50
2018-12-18T20:21:19.079Z,95.80
2018-12-18T20:23:50.828Z,95.40
2018-12-18T20:26:21.605Z,95.20
2018-12-18T20:28:56.034Z,95.20
2018-12-18T20:31:25.669Z,95.10
2018-12-18T20:34:00.400Z,95.20
2018-12-18T20:36:32.306Z,95.10
2018-12-18T20:39:02.342Z,95.10
2018-12-18T20:41:32.256Z,95.00
2018-12-18T20:44:08.038Z,95.00
2018-12-18T20:46:38.692Z,95.00
2018-12-18T20:49:10.387Z,95.00
2018-12-18T20:51:43.100Z,95.10
2018-12-18T20:54:13.917Z,95.00
2018-12-18T20:56:44.115Z,95.00
2018-12-18T20:59:13.070Z,95.00
2018-12-18T21:01:45.403Z,95.40
2018-12-18T21:04:17.172Z,95.20
2018-12-18T21:06:46.798Z,95.30
2018-12-18T21:09:15.936Z,95.30
2018-12-18T21:11:46.204Z,95.40
2018-12-18T21:14:16.146Z,95.30
2018-12-18T21:16:48.761Z,95.40
2018-12-18T21:19:18.021Z,95.40
2018-12-18T21:21:48.469Z,95.30
2018-12-18T21:24:20.142Z,95.10
2018-12-18T21:26:55.103Z,95.10
2018-12-18T21:29:35.481Z,95.10
2018-12-18T21:32:09.440Z,95.10
2018-12-18T21:34:42.651Z,95.00
2018-12-18T21:37:15.951Z,95.10
2018-12-18T21:39:46.282Z,95.10
2018-12-18T21:42:15.558Z,95.00
2018-12-18T21:44:46.805Z,94.90
2018-12-18T21:47:16.681Z,94.80
2018-12-18T21:49:50.321Z,94.70
2018-12-18T21:52:19.679Z,94.70
2018-12-18T21:54:50.414Z,94.60
2018-12-18T21:57:21.303Z,94.60
2018-12-18T21:59:50.478Z,94.70
2018-12-18T22:02:20.264Z,94.70
2018-12-18T22:04:49.447Z,94.80
2018-12-18T22:07:20.041Z,94.80
2018-12-18T22:09:50.028Z,94.90
2018-12-18T22:12:21.257Z,94.90
2018-12-18T22:14:50.612Z,95.00
2018-12-18T22:17:20.065Z,95.10
2018-12-18T22:19:50.356Z,95.00
2018-12-18T22:22:20.471Z,95.00
2018-12-18T22:24:51.744Z,94.90
2018-12-18T22:27:21.008Z,95.00
2018-12-18T22:29:50.877Z,95.10
2018-12-18T22:32:19.890Z,95.20
2018-12-18T22:34:49.422Z,95.20
2018-12-18T22:37:19.331Z,95.30
2018-12-18T22:39:49.119Z,95.40
2018-12-18T22:42:24.465Z,95.30
2018-12-18T22:44:52.954Z,95.40
2018-12-18T22:47:24.220Z,95.50
2018-12-18T22:49:55.034Z,95.70
2018-12-18T22:52:25.578Z,95.80
2018-12-18T22:54:54.827Z,95.90
2018-12-18T22:57:24.354Z,95.80
2018-12-18T22:59:56.569Z,96.00
2018-12-18T23:02:25.703Z,96.10
2018-12-18T23:04:54.455Z,96.20
2018-12-18T23:07:25.250Z,96.40
2018-12-18T23:09:54.966Z,96.40
2018-12-18T23:12:28.601Z,96.60
2018-12-18T23:14:59.189Z,96.70
2018-12-18T23:17:32.004Z,96.90
2018-12-18T23:20:01.838Z,96.80
2018-12-18T23:22:32.695Z,96.90
2018-12-18T23:25:02.809Z,96.90
2018-12-18T23:27:32.370Z,96.90
2018-12-18T23:30:01.263Z,96.90
2018-12-18T23:32:30.156Z,96.90
2018-12-18T23:35:00.443Z,97.10
2018-12-18T23:37:29.947Z,97.30
2018-12-18T23:39:58.950Z,97.30
2018-12-18T23:42:27.896Z,97.30
2018-12-18T23:44:57.112Z,97.10
2018-12-18T23:47:27.554Z,97.00
2018-12-18T23:49:58.379Z,97.00
2018-12-18T23:52:28.907Z,97.10
2018-12-18T23:54:57.821Z,97.10
2018-12-18T23:57:26.637Z,97.20
2018-12-18T23:59:55.221Z,97.20
